sensor_id;sensor_type;location;lat;lon;timestamp;P1;durP1;ratioP1;P2;durP2;ratioP2
79074;SDS011;68476;42.710;23.388;2023-08-20T00:01:30;8.25;;;6.13;;
79074;SDS011;68476;42.710;23.388;2023-08-20T00:03:55;6.97;;;5.93;;
79074;SDS011;68476;42.710;23.388;2023-08-20T00:06:21;7.13;;;6.10;;
79074;SDS011;68476;42.710;23.388;2023-08-20T00:08:48;8.55;;;5.95;;
79074;SDS011;68476;42.710;23.388;2023-08-20T00:11:13;7.78;;;5.75;;
79074;SDS011;68476;42.710;23.388;2023-08-20T00:13:39;9.00;;;6.30;;
79074;SDS011;68476;42.710;23.388;2023-08-20T00:16:05;7.68;;;6.15;;
79074;SDS011;68476;42.710;23.388;2023-08-20T00:18:31;8.15;;;6.88;;
79074;SDS011;68476;42.710;23.388;2023-08-20T00:20:57;9.45;;;6.78;;
79074;SDS011;68476;42.710;23.388;2023-08-20T00:23:23;8.00;;;6.53;;
79074;SDS011;68476;42.710;23.388;2023-08-20T00:25:48;7.15;;;6.25;;
79074;SDS011;68476;42.710;23.388;2023-08-20T00:28:14;8.50;;;6.65;;
79074;SDS011;68476;42.710;23.388;2023-08-20T00:30:39;8.23;;;6.82;;
79074;SDS011;68476;42.710;23.388;2023-08-20T00:33:05;7.88;;;6.80;;
79074;SDS011;68476;42.710;23.388;2023-08-20T00:35:31;7.28;;;6.43;;
79074;SDS011;68476;42.710;23.388;2023-08-20T00:37:56;9.60;;;6.50;;
79074;SDS011;68476;42.710;23.388;2023-08-20T00:40:22;7.10;;;6.30;;
79074;SDS011;68476;42.710;23.388;2023-08-20T00:42:47;8.32;;;6.80;;
79074;SDS011;68476;42.710;23.388;2023-08-20T00:45:13;9.20;;;6.20;;
79074;SDS011;68476;42.710;23.388;2023-08-20T00:47:38;7.60;;;6.78;;
79074;SDS011;68476;42.710;23.388;2023-08-20T00:50:04;8.63;;;7.00;;
79074;SDS011;68476;42.710;23.388;2023-08-20T00:52:33;8.57;;;6.63;;
79074;SDS011;68476;42.710;23.388;2023-08-20T00:54:59;11.30;;;7.18;;
79074;SDS011;68476;42.710;23.388;2023-08-20T00:57:30;7.80;;;6.07;;
79074;SDS011;68476;42.710;23.388;2023-08-20T00:59:55;8.90;;;6.57;;
79074;SDS011;68476;42.710;23.388;2023-08-20T01:02:22;8.52;;;6.78;;
79074;SDS011;68476;42.710;23.388;2023-08-20T01:04:47;9.48;;;6.68;;
79074;SDS011;68476;42.710;23.388;2023-08-20T01:13:00;9.35;;;6.75;;
79074;SDS011;68476;42.710;23.388;2023-08-20T01:15:27;8.80;;;7.53;;
79074;SDS011;68476;42.710;23.388;2023-08-20T01:17:52;8.40;;;6.60;;
79074;SDS011;68476;42.710;23.388;2023-08-20T01:20:18;9.30;;;7.10;;
79074;SDS011;68476;42.710;23.388;2023-08-20T01:25:32;7.45;;;6.65;;
79074;SDS011;68476;42.710;23.388;2023-08-20T01:28:25;7.80;;;7.00;;
79074;SDS011;68476;42.710;23.388;2023-08-20T01:30:53;8.75;;;6.95;;
79074;SDS011;68476;42.710;23.388;2023-08-20T01:33:19;8.07;;;7.28;;
79074;SDS011;68476;42.710;23.388;2023-08-20T01:35:45;8.90;;;7.50;;
79074;SDS011;68476;42.710;23.388;2023-08-20T01:38:11;7.90;;;7.10;;
79074;SDS011;68476;42.710;23.388;2023-08-20T01:40:36;8.38;;;6.93;;
79074;SDS011;68476;42.710;23.388;2023-08-20T01:43:02;8.05;;;6.90;;
79074;SDS011;68476;42.710;23.388;2023-08-20T01:45:27;7.47;;;6.72;;
79074;SDS011;68476;42.710;23.388;2023-08-20T01:47:52;8.45;;;7.03;;
79074;SDS011;68476;42.710;23.388;2023-08-20T01:50:18;9.27;;;7.25;;
79074;SDS011;68476;42.710;23.388;2023-08-20T01:52:44;11.60;;;7.53;;
79074;SDS011;68476;42.710;23.388;2023-08-20T01:55:09;8.25;;;7.40;;
79074;SDS011;68476;42.710;23.388;2023-08-20T01:57:36;8.25;;;7.38;;
79074;SDS011;68476;42.710;23.388;2023-08-20T02:00:01;8.93;;;7.57;;
79074;SDS011;68476;42.710;23.388;2023-08-20T02:02:30;10.70;;;7.32;;
79074;SDS011;68476;42.710;23.388;2023-08-20T02:04:55;10.57;;;7.68;;
79074;SDS011;68476;42.710;23.388;2023-08-20T02:07:21;8.43;;;7.60;;
79074;SDS011;68476;42.710;23.388;2023-08-20T02:09:46;9.98;;;7.35;;
79074;SDS011;68476;42.710;23.388;2023-08-20T02:12:11;9.93;;;7.30;;
79074;SDS011;68476;42.710;23.388;2023-08-20T02:14:37;8.52;;;7.50;;
79074;SDS011;68476;42.710;23.388;2023-08-20T02:17:02;9.55;;;7.65;;
79074;SDS011;68476;42.710;23.388;2023-08-20T02:19:28;7.72;;;6.93;;
79074;SDS011;68476;42.710;23.388;2023-08-20T02:21:54;9.25;;;7.10;;
79074;SDS011;68476;42.710;23.388;2023-08-20T02:24:19;9.77;;;7.25;;
79074;SDS011;68476;42.710;23.388;2023-08-20T02:26:44;8.73;;;7.35;;
79074;SDS011;68476;42.710;23.388;2023-08-20T02:29:10;10.50;;;7.70;;
79074;SDS011;68476;42.710;23.388;2023-08-20T02:31:35;9.75;;;7.63;;
79074;SDS011;68476;42.710;23.388;2023-08-20T02:34:01;11.65;;;7.18;;
79074;SDS011;68476;42.710;23.388;2023-08-20T02:36:26;8.82;;;7.50;;
79074;SDS011;68476;42.710;23.388;2023-08-20T02:38:52;10.48;;;7.25;;
79074;SDS011;68476;42.710;23.388;2023-08-20T02:41:17;10.52;;;7.35;;
79074;SDS011;68476;42.710;23.388;2023-08-20T02:43:43;9.95;;;7.82;;
79074;SDS011;68476;42.710;23.388;2023-08-20T02:46:08;10.48;;;7.70;;
79074;SDS011;68476;42.710;23.388;2023-08-20T02:48:33;9.50;;;8.07;;
79074;SDS011;68476;42.710;23.388;2023-08-20T02:50:59;8.48;;;7.65;;
79074;SDS011;68476;42.710;23.388;2023-08-20T02:53:24;9.60;;;8.13;;
79074;SDS011;68476;42.710;23.388;2023-08-20T02:55:50;9.52;;;7.43;;
79074;SDS011;68476;42.710;23.388;2023-08-20T02:58:15;8.65;;;7.70;;
79074;SDS011;68476;42.710;23.388;2023-08-20T03:00:41;10.48;;;8.23;;
79074;SDS011;68476;42.710;23.388;2023-08-20T03:03:07;10.75;;;8.38;;
79074;SDS011;68476;42.710;23.388;2023-08-20T03:05:34;9.98;;;8.50;;
79074;SDS011;68476;42.710;23.388;2023-08-20T03:08:00;12.30;;;8.25;;
79074;SDS011;68476;42.710;23.388;2023-08-20T03:10:28;9.05;;;8.10;;
79074;SDS011;68476;42.710;23.388;2023-08-20T03:12:55;9.77;;;8.77;;
79074;SDS011;68476;42.710;23.388;2023-08-20T03:15:21;10.25;;;8.48;;
79074;SDS011;68476;42.710;23.388;2023-08-20T03:17:46;10.88;;;8.25;;
79074;SDS011;68476;42.710;23.388;2023-08-20T03:20:11;11.13;;;7.97;;
79074;SDS011;68476;42.710;23.388;2023-08-20T03:22:37;9.70;;;8.23;;
79074;SDS011;68476;42.710;23.388;2023-08-20T03:25:03;9.23;;;8.13;;
79074;SDS011;68476;42.710;23.388;2023-08-20T03:27:29;12.07;;;9.35;;
79074;SDS011;68476;42.710;23.388;2023-08-20T03:29:55;12.48;;;8.73;;
79074;SDS011;68476;42.710;23.388;2023-08-20T03:32:20;10.75;;;8.80;;
79074;SDS011;68476;42.710;23.388;2023-08-20T03:34:46;12.30;;;9.02;;
79074;SDS011;68476;42.710;23.388;2023-08-20T03:37:11;10.00;;;8.50;;
79074;SDS011;68476;42.710;23.388;2023-08-20T03:39:37;9.57;;;8.27;;
79074;SDS011;68476;42.710;23.388;2023-08-20T03:42:02;10.02;;;8.23;;
79074;SDS011;68476;42.710;23.388;2023-08-20T03:44:28;11.68;;;8.43;;
79074;SDS011;68476;42.710;23.388;2023-08-20T03:46:54;10.30;;;8.60;;
79074;SDS011;68476;42.710;23.388;2023-08-20T03:49:20;11.80;;;8.50;;
79074;SDS011;68476;42.710;23.388;2023-08-20T03:51:45;10.05;;;8.25;;
79074;SDS011;68476;42.710;23.388;2023-08-20T03:54:11;12.00;;;8.43;;
79074;SDS011;68476;42.710;23.388;2023-08-20T03:56:36;12.02;;;8.77;;
79074;SDS011;68476;42.710;23.388;2023-08-20T03:59:01;9.93;;;7.65;;
79074;SDS011;68476;42.710;23.388;2023-08-20T04:01:27;9.02;;;8.05;;
79074;SDS011;68476;42.710;23.388;2023-08-20T04:03:53;11.35;;;8.38;;
79074;SDS011;68476;42.710;23.388;2023-08-20T04:06:18;9.20;;;8.05;;
79074;SDS011;68476;42.710;23.388;2023-08-20T04:08:43;10.30;;;7.57;;
79074;SDS011;68476;42.710;23.388;2023-08-20T04:11:09;11.07;;;8.50;;
79074;SDS011;68476;42.710;23.388;2023-08-20T04:13:34;11.70;;;8.73;;
79074;SDS011;68476;42.710;23.388;2023-08-20T04:16:00;11.05;;;8.63;;
79074;SDS011;68476;42.710;23.388;2023-08-20T04:18:25;11.75;;;8.82;;
79074;SDS011;68476;42.710;23.388;2023-08-20T04:20:51;11.27;;;8.10;;
79074;SDS011;68476;42.710;23.388;2023-08-20T04:23:17;15.38;;;8.90;;
79074;SDS011;68476;42.710;23.388;2023-08-20T04:25:43;9.75;;;8.55;;
79074;SDS011;68476;42.710;23.388;2023-08-20T04:28:10;10.68;;;8.30;;
79074;SDS011;68476;42.710;23.388;2023-08-20T04:30:35;10.75;;;8.70;;
79074;SDS011;68476;42.710;23.388;2023-08-20T04:33:01;12.18;;;8.48;;
79074;SDS011;68476;42.710;23.388;2023-08-20T04:35:27;10.30;;;8.20;;
79074;SDS011;68476;42.710;23.388;2023-08-20T04:37:52;10.75;;;8.10;;
79074;SDS011;68476;42.710;23.388;2023-08-20T04:40:18;11.07;;;8.77;;
79074;SDS011;68476;42.710;23.388;2023-08-20T04:42:43;10.23;;;9.13;;
79074;SDS011;68476;42.710;23.388;2023-08-20T04:45:09;10.05;;;8.52;;
79074;SDS011;68476;42.710;23.388;2023-08-20T04:47:35;10.95;;;9.25;;
79074;SDS011;68476;42.710;23.388;2023-08-20T04:50:01;11.45;;;8.77;;
79074;SDS011;68476;42.710;23.388;2023-08-20T04:52:27;10.50;;;9.07;;
79074;SDS011;68476;42.710;23.388;2023-08-20T04:54:53;13.00;;;9.23;;
79074;SDS011;68476;42.710;23.388;2023-08-20T04:57:18;11.05;;;9.82;;
79074;SDS011;68476;42.710;23.388;2023-08-20T04:59:44;12.95;;;9.27;;
79074;SDS011;68476;42.710;23.388;2023-08-20T05:02:11;10.50;;;8.93;;
79074;SDS011;68476;42.710;23.388;2023-08-20T05:04:37;13.38;;;8.80;;
79074;SDS011;68476;42.710;23.388;2023-08-20T05:07:03;11.88;;;8.73;;
79074;SDS011;68476;42.710;23.388;2023-08-20T05:09:29;13.73;;;9.65;;
79074;SDS011;68476;42.710;23.388;2023-08-20T05:11:54;13.80;;;8.82;;
79074;SDS011;68476;42.710;23.388;2023-08-20T05:14:20;14.68;;;9.57;;
79074;SDS011;68476;42.710;23.388;2023-08-20T05:16:45;11.52;;;8.90;;
79074;SDS011;68476;42.710;23.388;2023-08-20T05:19:10;10.00;;;8.55;;
79074;SDS011;68476;42.710;23.388;2023-08-20T05:21:36;11.45;;;8.73;;
79074;SDS011;68476;42.710;23.388;2023-08-20T05:24:01;11.52;;;9.45;;
79074;SDS011;68476;42.710;23.388;2023-08-20T05:26:27;10.82;;;9.05;;
79074;SDS011;68476;42.710;23.388;2023-08-20T05:28:52;11.80;;;8.98;;
79074;SDS011;68476;42.710;23.388;2023-08-20T05:31:17;10.85;;;8.73;;
79074;SDS011;68476;42.710;23.388;2023-08-20T05:33:43;10.45;;;8.82;;
79074;SDS011;68476;42.710;23.388;2023-08-20T05:36:08;10.13;;;8.73;;
79074;SDS011;68476;42.710;23.388;2023-08-20T05:38:33;10.25;;;8.88;;
79074;SDS011;68476;42.710;23.388;2023-08-20T05:40:59;11.88;;;8.68;;
79074;SDS011;68476;42.710;23.388;2023-08-20T05:43:24;12.55;;;8.75;;
79074;SDS011;68476;42.710;23.388;2023-08-20T05:45:50;11.38;;;8.85;;
79074;SDS011;68476;42.710;23.388;2023-08-20T05:48:15;10.15;;;8.40;;
79074;SDS011;68476;42.710;23.388;2023-08-20T05:50:41;10.95;;;8.77;;
79074;SDS011;68476;42.710;23.388;2023-08-20T05:53:06;10.93;;;8.90;;
79074;SDS011;68476;42.710;23.388;2023-08-20T05:55:31;10.18;;;8.32;;
79074;SDS011;68476;42.710;23.388;2023-08-20T05:57:57;11.23;;;8.30;;
79074;SDS011;68476;42.710;23.388;2023-08-20T06:00:22;10.30;;;8.35;;
79074;SDS011;68476;42.710;23.388;2023-08-20T06:02:47;11.05;;;9.13;;
79074;SDS011;68476;42.710;23.388;2023-08-20T06:05:13;10.73;;;8.38;;
79074;SDS011;68476;42.710;23.388;2023-08-20T06:07:39;11.30;;;8.13;;
79074;SDS011;68476;42.710;23.388;2023-08-20T06:10:05;10.95;;;8.65;;
79074;SDS011;68476;42.710;23.388;2023-08-20T06:12:32;10.57;;;8.98;;
79074;SDS011;68476;42.710;23.388;2023-08-20T06:14:57;10.70;;;8.90;;
79074;SDS011;68476;42.710;23.388;2023-08-20T06:17:22;10.15;;;8.27;;
79074;SDS011;68476;42.710;23.388;2023-08-20T06:19:48;12.85;;;9.02;;
79074;SDS011;68476;42.710;23.388;2023-08-20T06:22:14;11.63;;;8.57;;
79074;SDS011;68476;42.710;23.388;2023-08-20T06:24:39;9.23;;;8.23;;
79074;SDS011;68476;42.710;23.388;2023-08-20T06:27:05;11.13;;;8.75;;
79074;SDS011;68476;42.710;23.388;2023-08-20T06:29:30;9.50;;;8.50;;
79074;SDS011;68476;42.710;23.388;2023-08-20T06:31:56;9.98;;;8.65;;
79074;SDS011;68476;42.710;23.388;2023-08-20T06:34:21;10.60;;;8.27;;
79074;SDS011;68476;42.710;23.388;2023-08-20T06:36:47;11.98;;;8.77;;
79074;SDS011;68476;42.710;23.388;2023-08-20T06:39:12;9.10;;;8.20;;
79074;SDS011;68476;42.710;23.388;2023-08-20T06:41:40;11.38;;;8.40;;
79074;SDS011;68476;42.710;23.388;2023-08-20T06:44:06;9.73;;;7.88;;
79074;SDS011;68476;42.710;23.388;2023-08-20T06:46:31;9.88;;;7.80;;
79074;SDS011;68476;42.710;23.388;2023-08-20T06:48:56;10.18;;;8.02;;
79074;SDS011;68476;42.710;23.388;2023-08-20T06:51:22;9.25;;;8.13;;
79074;SDS011;68476;42.710;23.388;2023-08-20T06:53:47;10.13;;;8.20;;
79074;SDS011;68476;42.710;23.388;2023-08-20T06:56:13;9.95;;;8.52;;
79074;SDS011;68476;42.710;23.388;2023-08-20T06:58:39;8.77;;;7.88;;
79074;SDS011;68476;42.710;23.388;2023-08-20T07:01:06;10.25;;;8.45;;
79074;SDS011;68476;42.710;23.388;2023-08-20T07:03:42;9.52;;;8.20;;
79074;SDS011;68476;42.710;23.388;2023-08-20T07:06:08;9.25;;;8.35;;
79074;SDS011;68476;42.710;23.388;2023-08-20T07:08:35;8.93;;;8.02;;
79074;SDS011;68476;42.710;23.388;2023-08-20T07:11:01;9.02;;;7.78;;
79074;SDS011;68476;42.710;23.388;2023-08-20T07:13:27;11.65;;;8.02;;
79074;SDS011;68476;42.710;23.388;2023-08-20T07:15:53;9.05;;;8.15;;
79074;SDS011;68476;42.710;23.388;2023-08-20T07:18:19;10.07;;;7.57;;
79074;SDS011;68476;42.710;23.388;2023-08-20T07:20:44;9.20;;;8.18;;
79074;SDS011;68476;42.710;23.388;2023-08-20T07:23:10;8.93;;;7.25;;
79074;SDS011;68476;42.710;23.388;2023-08-20T07:25:37;9.25;;;8.10;;
79074;SDS011;68476;42.710;23.388;2023-08-20T07:28:06;9.10;;;7.00;;
79074;SDS011;68476;42.710;23.388;2023-08-20T07:30:33;8.20;;;7.00;;
79074;SDS011;68476;42.710;23.388;2023-08-20T07:33:00;10.23;;;7.65;;
79074;SDS011;68476;42.710;23.388;2023-08-20T07:35:26;7.93;;;6.95;;
79074;SDS011;68476;42.710;23.388;2023-08-20T07:37:51;9.82;;;7.63;;
79074;SDS011;68476;42.710;23.388;2023-08-20T07:40:17;8.07;;;6.80;;
79074;SDS011;68476;42.710;23.388;2023-08-20T07:42:43;6.80;;;6.10;;
79074;SDS011;68476;42.710;23.388;2023-08-20T07:45:08;8.10;;;5.85;;
79074;SDS011;68476;42.710;23.388;2023-08-20T07:47:35;8.30;;;6.57;;
79074;SDS011;68476;42.710;23.388;2023-08-20T07:50:01;8.77;;;6.40;;
79074;SDS011;68476;42.710;23.388;2023-08-20T07:52:27;8.35;;;6.10;;
79074;SDS011;68476;42.710;23.388;2023-08-20T07:54:53;9.80;;;6.57;;
79074;SDS011;68476;42.710;23.388;2023-08-20T07:57:18;6.95;;;6.22;;
79074;SDS011;68476;42.710;23.388;2023-08-20T07:59:43;7.78;;;6.05;;
79074;SDS011;68476;42.710;23.388;2023-08-20T08:02:09;8.07;;;6.82;;
79074;SDS011;68476;42.710;23.388;2023-08-20T08:04:35;8.15;;;6.18;;
79074;SDS011;68476;42.710;23.388;2023-08-20T08:07:01;6.45;;;5.75;;
79074;SDS011;68476;42.710;23.388;2023-08-20T08:09:28;7.95;;;6.00;;
79074;SDS011;68476;42.710;23.388;2023-08-20T08:11:55;8.43;;;6.85;;
79074;SDS011;68476;42.710;23.388;2023-08-20T08:14:21;8.02;;;6.60;;
79074;SDS011;68476;42.710;23.388;2023-08-20T08:16:46;7.70;;;6.57;;
79074;SDS011;68476;42.710;23.388;2023-08-20T08:19:12;8.35;;;6.38;;
79074;SDS011;68476;42.710;23.388;2023-08-20T08:21:38;7.10;;;6.40;;
79074;SDS011;68476;42.710;23.388;2023-08-20T08:24:03;8.45;;;6.65;;
79074;SDS011;68476;42.710;23.388;2023-08-20T08:26:30;7.40;;;6.10;;
79074;SDS011;68476;42.710;23.388;2023-08-20T08:28:56;6.72;;;6.00;;
79074;SDS011;68476;42.710;23.388;2023-08-20T08:31:21;6.70;;;6.00;;
79074;SDS011;68476;42.710;23.388;2023-08-20T08:33:47;6.68;;;5.25;;
79074;SDS011;68476;42.710;23.388;2023-08-20T08:36:12;6.70;;;6.00;;
79074;SDS011;68476;42.710;23.388;2023-08-20T08:38:38;7.13;;;5.60;;
79074;SDS011;68476;42.710;23.388;2023-08-20T08:41:03;6.32;;;5.60;;
79074;SDS011;68476;42.710;23.388;2023-08-20T08:43:35;9.88;;;5.03;;
79074;SDS011;68476;42.710;23.388;2023-08-20T08:46:03;7.03;;;5.30;;
79074;SDS011;68476;42.710;23.388;2023-08-20T08:48:41;6.22;;;5.50;;
79074;SDS011;68476;42.710;23.388;2023-08-20T08:51:07;6.30;;;5.70;;
79074;SDS011;68476;42.710;23.388;2023-08-20T08:53:33;6.97;;;5.47;;
79074;SDS011;68476;42.710;23.388;2023-08-20T08:56:00;6.65;;;5.72;;
79074;SDS011;68476;42.710;23.388;2023-08-20T08:58:27;6.30;;;5.38;;
79074;SDS011;68476;42.710;23.388;2023-08-20T09:00:53;6.03;;;5.30;;
79074;SDS011;68476;42.710;23.388;2023-08-20T09:03:19;6.55;;;5.13;;
79074;SDS011;68476;42.710;23.388;2023-08-20T09:08:39;7.82;;;5.13;;
79074;SDS011;68476;42.710;23.388;2023-08-20T09:11:04;5.63;;;4.97;;
79074;SDS011;68476;42.710;23.388;2023-08-20T09:18:24;5.75;;;4.90;;
79074;SDS011;68476;42.710;23.388;2023-08-20T09:20:49;5.95;;;5.05;;
79074;SDS011;68476;42.710;23.388;2023-08-20T09:23:15;5.95;;;5.35;;
79074;SDS011;68476;42.710;23.388;2023-08-20T09:25:41;7.38;;;5.10;;
79074;SDS011;68476;42.710;23.388;2023-08-20T09:28:07;5.03;;;4.10;;
79074;SDS011;68476;42.710;23.388;2023-08-20T09:30:33;3.92;;;3.47;;
79074;SDS011;68476;42.710;23.388;2023-08-20T09:33:02;4.05;;;3.65;;
79074;SDS011;68476;42.710;23.388;2023-08-20T09:35:29;6.30;;;3.90;;
79074;SDS011;68476;42.710;23.388;2023-08-20T09:38:04;4.95;;;3.72;;
79074;SDS011;68476;42.710;23.388;2023-08-20T09:40:29;6.38;;;4.00;;
79074;SDS011;68476;42.710;23.388;2023-08-20T09:42:55;7.60;;;3.80;;
79074;SDS011;68476;42.710;23.388;2023-08-20T09:45:22;5.30;;;3.67;;
79074;SDS011;68476;42.710;23.388;2023-08-20T09:47:49;5.88;;;3.50;;
79074;SDS011;68476;42.710;23.388;2023-08-20T09:50:21;4.30;;;3.55;;
79074;SDS011;68476;42.710;23.388;2023-08-20T09:52:58;4.90;;;3.67;;
79074;SDS011;68476;42.710;23.388;2023-08-20T09:55:29;3.95;;;3.45;;
79074;SDS011;68476;42.710;23.388;2023-08-20T09:58:02;4.72;;;3.70;;
79074;SDS011;68476;42.710;23.388;2023-08-20T10:00:28;4.43;;;3.70;;
79074;SDS011;68476;42.710;23.388;2023-08-20T10:02:54;5.10;;;3.58;;
79074;SDS011;68476;42.710;23.388;2023-08-20T10:05:20;5.53;;;3.50;;
79074;SDS011;68476;42.710;23.388;2023-08-20T10:07:47;4.90;;;3.40;;
79074;SDS011;68476;42.710;23.388;2023-08-20T10:10:14;4.25;;;3.40;;
79074;SDS011;68476;42.710;23.388;2023-08-20T10:12:41;4.75;;;3.65;;
79074;SDS011;68476;42.710;23.388;2023-08-20T10:15:09;4.80;;;3.53;;
79074;SDS011;68476;42.710;23.388;2023-08-20T10:17:35;4.00;;;3.60;;
79074;SDS011;68476;42.710;23.388;2023-08-20T10:20:03;3.85;;;3.40;;
79074;SDS011;68476;42.710;23.388;2023-08-20T10:22:36;3.83;;;3.42;;
79074;SDS011;68476;42.710;23.388;2023-08-20T10:25:06;4.45;;;3.10;;
79074;SDS011;68476;42.710;23.388;2023-08-20T10:27:33;5.30;;;3.60;;
79074;SDS011;68476;42.710;23.388;2023-08-20T10:30:01;4.47;;;3.58;;
79074;SDS011;68476;42.710;23.388;2023-08-20T10:32:45;4.18;;;3.30;;
79074;SDS011;68476;42.710;23.388;2023-08-20T10:35:15;4.65;;;3.40;;
79074;SDS011;68476;42.710;23.388;2023-08-20T10:38:11;4.57;;;3.47;;
79074;SDS011;68476;42.710;23.388;2023-08-20T10:40:54;5.65;;;3.25;;
79074;SDS011;68476;42.710;23.388;2023-08-20T10:48:47;7.25;;;3.22;;
79074;SDS011;68476;42.710;23.388;2023-08-20T10:51:17;3.97;;;3.13;;
79074;SDS011;68476;42.710;23.388;2023-08-20T10:59:08;5.00;;;3.10;;
79074;SDS011;68476;42.710;23.388;2023-08-20T11:01:35;5.60;;;3.15;;
79074;SDS011;68476;42.710;23.388;2023-08-20T11:04:00;3.42;;;3.13;;
79074;SDS011;68476;42.710;23.388;2023-08-20T11:06:31;4.85;;;3.10;;
79074;SDS011;68476;42.710;23.388;2023-08-20T11:08:57;3.35;;;3.05;;
79074;SDS011;68476;42.710;23.388;2023-08-20T11:11:23;4.13;;;3.33;;
79074;SDS011;68476;42.710;23.388;2023-08-20T11:13:49;3.33;;;3.00;;
79074;SDS011;68476;42.710;23.388;2023-08-20T11:16:14;4.95;;;3.10;;
79074;SDS011;68476;42.710;23.388;2023-08-20T11:18:39;4.13;;;3.40;;
79074;SDS011;68476;42.710;23.388;2023-08-20T11:21:05;3.30;;;3.00;;
79074;SDS011;68476;42.710;23.388;2023-08-20T11:23:32;4.28;;;3.00;;
79074;SDS011;68476;42.710;23.388;2023-08-20T11:25:57;3.53;;;3.20;;
79074;SDS011;68476;42.710;23.388;2023-08-20T11:28:24;3.47;;;3.17;;
79074;SDS011;68476;42.710;23.388;2023-08-20T11:30:50;4.65;;;3.22;;
79074;SDS011;68476;42.710;23.388;2023-08-20T11:33:16;6.85;;;3.20;;
79074;SDS011;68476;42.710;23.388;2023-08-20T11:35:41;5.00;;;3.35;;
79074;SDS011;68476;42.710;23.388;2023-08-20T11:38:09;3.70;;;3.28;;
79074;SDS011;68476;42.710;23.388;2023-08-20T11:40:35;4.28;;;3.25;;
79074;SDS011;68476;42.710;23.388;2023-08-20T11:43:01;4.28;;;3.60;;
79074;SDS011;68476;42.710;23.388;2023-08-20T11:45:26;5.18;;;3.50;;
79074;SDS011;68476;42.710;23.388;2023-08-20T11:47:55;3.90;;;3.50;;
79074;SDS011;68476;42.710;23.388;2023-08-20T11:50:23;5.00;;;3.30;;
79074;SDS011;68476;42.710;23.388;2023-08-20T11:52:48;3.60;;;3.30;;
79074;SDS011;68476;42.710;23.388;2023-08-20T11:55:13;3.90;;;3.50;;
79074;SDS011;68476;42.710;23.388;2023-08-20T11:57:39;3.50;;;3.20;;
79074;SDS011;68476;42.710;23.388;2023-08-20T12:00:05;5.63;;;3.15;;
79074;SDS011;68476;42.710;23.388;2023-08-20T12:02:40;5.18;;;3.20;;
79074;SDS011;68476;42.710;23.388;2023-08-20T12:05:09;3.80;;;3.33;;
79074;SDS011;68476;42.710;23.388;2023-08-20T12:07:34;4.03;;;3.53;;
79074;SDS011;68476;42.710;23.388;2023-08-20T12:10:18;4.13;;;3.40;;
79074;SDS011;68476;42.710;23.388;2023-08-20T12:12:44;8.90;;;3.40;;
79074;SDS011;68476;42.710;23.388;2023-08-20T12:15:10;6.05;;;3.05;;
79074;SDS011;68476;42.710;23.388;2023-08-20T12:17:35;4.43;;;3.50;;
79074;SDS011;68476;42.710;23.388;2023-08-20T12:20:01;4.68;;;3.33;;
79074;SDS011;68476;42.710;23.388;2023-08-20T12:22:30;4.07;;;3.30;;
79074;SDS011;68476;42.710;23.388;2023-08-20T12:24:55;5.55;;;3.50;;
79074;SDS011;68476;42.710;23.388;2023-08-20T12:27:21;4.03;;;3.08;;
79074;SDS011;68476;42.710;23.388;2023-08-20T12:29:46;4.80;;;3.00;;
79074;SDS011;68476;42.710;23.388;2023-08-20T12:32:13;4.63;;;3.15;;
79074;SDS011;68476;42.710;23.388;2023-08-20T12:34:39;5.57;;;3.47;;
79074;SDS011;68476;42.710;23.388;2023-08-20T12:37:05;5.35;;;3.42;;
79074;SDS011;68476;42.710;23.388;2023-08-20T12:39:30;4.53;;;3.50;;
79074;SDS011;68476;42.710;23.388;2023-08-20T12:41:55;3.65;;;3.35;;
79074;SDS011;68476;42.710;23.388;2023-08-20T12:44:21;3.60;;;3.00;;
79074;SDS011;68476;42.710;23.388;2023-08-20T12:46:47;4.80;;;3.17;;
79074;SDS011;68476;42.710;23.388;2023-08-20T12:49:12;5.60;;;3.38;;
79074;SDS011;68476;42.710;23.388;2023-08-20T12:51:37;3.50;;;3.20;;
79074;SDS011;68476;42.710;23.388;2023-08-20T12:54:03;4.38;;;3.00;;
79074;SDS011;68476;42.710;23.388;2023-08-20T12:56:28;8.02;;;3.20;;
79074;SDS011;68476;42.710;23.388;2023-08-20T12:58:54;4.85;;;3.35;;
79074;SDS011;68476;42.710;23.388;2023-08-20T13:01:19;3.10;;;2.80;;
79074;SDS011;68476;42.710;23.388;2023-08-20T13:03:45;4.40;;;2.97;;
79074;SDS011;68476;42.710;23.388;2023-08-20T13:06:10;5.55;;;3.25;;
79074;SDS011;68476;42.710;23.388;2023-08-20T13:08:36;3.88;;;3.38;;
79074;SDS011;68476;42.710;23.388;2023-08-20T13:11:02;4.53;;;3.30;;
79074;SDS011;68476;42.710;23.388;2023-08-20T13:13:28;7.25;;;3.85;;
79074;SDS011;68476;42.710;23.388;2023-08-20T13:15:57;3.92;;;3.53;;
79074;SDS011;68476;42.710;23.388;2023-08-20T13:18:22;4.28;;;3.20;;
79074;SDS011;68476;42.710;23.388;2023-08-20T13:20:52;3.60;;;3.30;;
79074;SDS011;68476;42.710;23.388;2023-08-20T13:23:17;5.47;;;3.13;;
79074;SDS011;68476;42.710;23.388;2023-08-20T13:25:43;3.30;;;3.00;;
79074;SDS011;68476;42.710;23.388;2023-08-20T13:28:08;4.03;;;3.10;;
79074;SDS011;68476;42.710;23.388;2023-08-20T13:30:34;5.03;;;3.20;;
79074;SDS011;68476;42.710;23.388;2023-08-20T13:32:59;4.60;;;2.97;;
79074;SDS011;68476;42.710;23.388;2023-08-20T13:35:25;3.13;;;2.78;;
79074;SDS011;68476;42.710;23.388;2023-08-20T13:37:51;4.43;;;3.30;;
79074;SDS011;68476;42.710;23.388;2023-08-20T13:40:17;4.93;;;3.00;;
79074;SDS011;68476;42.710;23.388;2023-08-20T13:42:43;3.50;;;3.20;;
79074;SDS011;68476;42.710;23.388;2023-08-20T13:45:08;5.90;;;3.22;;
79074;SDS011;68476;42.710;23.388;2023-08-20T13:47:34;4.78;;;3.42;;
79074;SDS011;68476;42.710;23.388;2023-08-20T13:49:59;4.15;;;3.10;;
79074;SDS011;68476;42.710;23.388;2023-08-20T13:52:25;4.97;;;3.05;;
79074;SDS011;68476;42.710;23.388;2023-08-20T13:54:50;3.50;;;3.00;;
79074;SDS011;68476;42.710;23.388;2023-08-20T13:57:16;7.82;;;3.40;;
79074;SDS011;68476;42.710;23.388;2023-08-20T13:59:41;3.45;;;3.00;;
79074;SDS011;68476;42.710;23.388;2023-08-20T14:02:07;4.15;;;3.03;;
79074;SDS011;68476;42.710;23.388;2023-08-20T14:04:32;4.00;;;3.17;;
79074;SDS011;68476;42.710;23.388;2023-08-20T14:06:58;4.97;;;2.83;;
79074;SDS011;68476;42.710;23.388;2023-08-20T14:09:23;3.80;;;3.20;;
79074;SDS011;68476;42.710;23.388;2023-08-20T14:11:48;5.88;;;3.15;;
79074;SDS011;68476;42.710;23.388;2023-08-20T14:14:14;6.80;;;3.10;;
79074;SDS011;68476;42.710;23.388;2023-08-20T14:16:39;3.88;;;3.28;;
79074;SDS011;68476;42.710;23.388;2023-08-20T14:19:05;4.50;;;3.00;;
79074;SDS011;68476;42.710;23.388;2023-08-20T14:21:30;6.28;;;3.22;;
79074;SDS011;68476;42.710;23.388;2023-08-20T14:23:56;4.10;;;3.33;;
79074;SDS011;68476;42.710;23.388;2023-08-20T14:26:21;4.80;;;3.03;;
79074;SDS011;68476;42.710;23.388;2023-08-20T14:28:47;5.38;;;3.10;;
79074;SDS011;68476;42.710;23.388;2023-08-20T14:31:12;4.30;;;3.17;;
79074;SDS011;68476;42.710;23.388;2023-08-20T14:33:37;4.28;;;3.10;;
79074;SDS011;68476;42.710;23.388;2023-08-20T14:36:03;5.82;;;3.20;;
79074;SDS011;68476;42.710;23.388;2023-08-20T14:38:29;5.30;;;3.30;;
79074;SDS011;68476;42.710;23.388;2023-08-20T14:40:58;3.45;;;3.10;;
79074;SDS011;68476;42.710;23.388;2023-08-20T14:43:25;3.50;;;3.20;;
79074;SDS011;68476;42.710;23.388;2023-08-20T14:45:50;3.88;;;3.13;;
79074;SDS011;68476;42.710;23.388;2023-08-20T14:48:15;4.85;;;2.95;;
79074;SDS011;68476;42.710;23.388;2023-08-20T14:50:41;4.47;;;3.03;;
79074;SDS011;68476;42.710;23.388;2023-08-20T14:53:06;6.32;;;3.10;;